createdAt,value
2023-11-26T00:00:36.533Z,4.11
2023-11-26T00:03:05.345Z,4.26
2023-11-26T00:05:31.817Z,4.57
2023-11-26T00:07:58.241Z,3.89
2023-11-26T00:10:24.696Z,4.12
2023-11-26T00:12:51.086Z,3.86
2023-11-26T00:15:17.468Z,3.87
2023-11-26T00:17:44.479Z,3.65
2023-11-26T00:20:11.236Z,3.54
2023-11-26T00:22:37.669Z,3.67
2023-11-26T00:25:04.345Z,3.84
2023-11-26T00:27:30.748Z,3.37
2023-11-26T00:29:57.264Z,3.42
2023-11-26T00:32:23.949Z,3.61
2023-11-26T00:34:50.507Z,3.83
2023-11-26T00:37:17.020Z,3.77
2023-11-26T00:39:44.021Z,3.38
2023-11-26T00:42:10.440Z,3.53
2023-11-26T00:44:36.809Z,3.28
2023-11-26T00:47:03.321Z,3.81
2023-11-26T00:49:29.749Z,3.83
2023-11-26T00:51:56.304Z,3.72
2023-11-26T00:54:22.648Z,3.48
2023-11-26T00:56:51.092Z,3.58
2023-11-26T00:59:17.493Z,4.18
2023-11-26T01:01:44.082Z,3.53
2023-11-26T01:04:10.537Z,3.76
2023-11-26T01:06:39.206Z,3.88
2023-11-26T01:09:05.670Z,3.99
2023-11-26T01:11:32.444Z,3.55
2023-11-26T01:13:59.016Z,3.49
2023-11-26T01:16:25.424Z,3.43
2023-11-26T01:18:52.104Z,3.68
2023-11-26T01:21:19.135Z,3.84
2023-11-26T01:23:46.783Z,3.70
2023-11-26T01:26:13.483Z,3.91
2023-11-26T01:28:39.903Z,3.74
2023-11-26T01:31:10.396Z,4.00
2023-11-26T01:33:36.917Z,3.48
2023-11-26T01:36:07.429Z,3.51
2023-11-26T01:38:33.870Z,3.36
2023-11-26T01:41:00.330Z,3.82
2023-11-26T01:43:27.676Z,3.47
2023-11-26T01:46:09.057Z,3.45
2023-11-26T01:48:36.884Z,3.59
2023-11-26T01:51:05.223Z,3.44
2023-11-26T01:53:32.894Z,3.91
2023-11-26T01:56:01.153Z,3.92
2023-11-26T01:58:31.478Z,4.06
2023-11-26T02:00:58.944Z,4.15
2023-11-26T02:03:25.520Z,4.08
2023-11-26T02:05:53.106Z,3.99
2023-11-26T02:08:21.631Z,3.86
2023-11-26T02:10:48.121Z,3.64
2023-11-26T02:13:15.093Z,3.48
2023-11-26T02:15:41.520Z,3.13
2023-11-26T02:18:08.309Z,3.05
2023-11-26T02:20:34.845Z,2.92
2023-11-26T02:23:01.253Z,3.01
2023-11-26T02:25:31.421Z,3.08
2023-11-26T02:28:00.266Z,3.41
2023-11-26T02:30:28.838Z,3.34
2023-11-26T02:32:55.312Z,3.54
2023-11-26T02:35:22.007Z,3.16
2023-11-26T02:37:48.693Z,2.97
2023-11-26T02:40:16.531Z,3.51
2023-11-26T02:42:44.633Z,3.37
2023-11-26T02:45:11.507Z,3.10
2023-11-26T02:47:38.331Z,3.21
2023-11-26T02:50:05.792Z,2.83
2023-11-26T02:52:32.233Z,2.80
2023-11-26T02:54:58.632Z,2.97
2023-11-26T02:57:25.508Z,2.90
2023-11-26T02:59:51.942Z,2.63
2023-11-26T03:02:19.283Z,2.88
2023-11-26T03:04:54.117Z,2.76
2023-11-26T03:07:22.997Z,2.80
2023-11-26T03:10:08.093Z,2.89
2023-11-26T03:12:53.133Z,2.96
2023-11-26T03:15:19.722Z,2.71
2023-11-26T03:17:46.215Z,2.78
2023-11-26T03:20:17.529Z,2.89
2023-11-26T03:22:43.975Z,2.91
2023-11-26T03:25:10.323Z,2.58
2023-11-26T03:27:36.830Z,2.63
2023-11-26T03:30:03.483Z,2.58
2023-11-26T03:32:29.978Z,2.65
2023-11-26T03:34:56.541Z,2.67
2023-11-26T03:37:23.453Z,2.67
2023-11-26T03:39:49.948Z,2.65
2023-11-26T03:42:23.170Z,2.58
2023-11-26T03:44:56.000Z,2.56
2023-11-26T03:47:22.459Z,2.82
2023-11-26T03:49:50.127Z,3.06
2023-11-26T03:52:16.518Z,3.02
2023-11-26T03:54:42.915Z,2.70
2023-11-26T03:57:11.447Z,2.61
2023-11-26T03:59:38.126Z,2.25
2023-11-26T04:02:04.800Z,2.17
2023-11-26T04:04:31.251Z,2.61
2023-11-26T04:06:59.255Z,2.66
2023-11-26T04:09:26.863Z,2.77
2023-11-26T04:11:57.747Z,2.70
2023-11-26T04:14:24.845Z,2.72
2023-11-26T04:16:51.237Z,2.82
2023-11-26T04:19:18.173Z,3.27
2023-11-26T04:21:46.094Z,2.86
2023-11-26T04:24:13.668Z,2.94
2023-11-26T04:26:46.308Z,3.11
2023-11-26T04:29:13.705Z,3.14
2023-11-26T04:31:40.116Z,2.92
2023-11-26T04:34:06.776Z,2.62
2023-11-26T04:36:33.143Z,2.75
2023-11-26T04:39:00.220Z,2.79
2023-11-26T04:41:27.580Z,2.49
2023-11-26T04:43:54.716Z,2.43
2023-11-26T04:46:21.315Z,3.02
2023-11-26T04:48:48.006Z,2.78
2023-11-26T04:51:14.443Z,2.61
2023-11-26T04:53:40.794Z,3.15
2023-11-26T04:56:07.659Z,2.98
2023-11-26T04:58:34.046Z,3.27
2023-11-26T05:01:00.442Z,2.77
2023-11-26T05:03:26.914Z,2.72
2023-11-26T05:05:53.592Z,2.69
2023-11-26T05:08:20.002Z,3.26
2023-11-26T05:10:46.454Z,3.26
2023-11-26T05:13:13.408Z,3.26
2023-11-26T05:15:39.748Z,3.09
2023-11-26T05:18:06.338Z,2.94
2023-11-26T05:20:32.816Z,3.18
2023-11-26T05:22:59.367Z,3.00
2023-11-26T05:25:25.757Z,3.24
2023-11-26T05:27:52.170Z,3.00
2023-11-26T05:30:19.361Z,3.19
2023-11-26T05:32:45.760Z,3.32
2023-11-26T05:35:15.300Z,3.33
2023-11-26T05:37:42.139Z,3.35
2023-11-26T05:40:13.121Z,3.39
2023-11-26T05:42:39.769Z,3.57
2023-11-26T05:45:06.434Z,3.43
2023-11-26T05:47:33.098Z,3.36
2023-11-26T05:50:00.353Z,3.54
2023-11-26T05:52:27.759Z,3.88
2023-11-26T05:54:54.104Z,3.82
2023-11-26T05:57:21.552Z,3.51
2023-11-26T05:59:48.000Z,3.26
2023-11-26T06:02:14.424Z,3.13
2023-11-26T06:04:40.822Z,3.28
2023-11-26T06:07:07.213Z,3.41
2023-11-26T06:09:33.654Z,3.19
2023-11-26T06:12:00.037Z,3.23
2023-11-26T06:14:26.504Z,3.25
2023-11-26T06:16:52.866Z,3.32
2023-11-26T06:19:19.235Z,3.22
2023-11-26T06:21:45.819Z,3.34
2023-11-26T06:24:12.867Z,3.17
2023-11-26T06:26:39.369Z,3.18
2023-11-26T06:29:06.708Z,3.06
2023-11-26T06:31:33.433Z,2.97
2023-11-26T06:33:59.798Z,2.90
2023-11-26T06:36:26.644Z,2.99
2023-11-26T06:38:54.057Z,2.92
2023-11-26T06:41:22.701Z,2.92
2023-11-26T06:43:49.091Z,3.01
2023-11-26T06:46:19.632Z,3.09
2023-11-26T06:48:46.057Z,3.06
2023-11-26T06:51:13.691Z,3.02
2023-11-26T06:53:40.388Z,2.93
2023-11-26T06:56:07.900Z,2.49
2023-11-26T06:58:38.113Z,2.73
2023-11-26T07:01:06.194Z,2.70
2023-11-26T07:03:36.198Z,2.78
2023-11-26T07:06:05.786Z,2.91
2023-11-26T07:08:35.032Z,2.85
2023-11-26T07:11:01.561Z,2.81
2023-11-26T07:13:27.888Z,2.79
2023-11-26T07:15:54.316Z,2.68
2023-11-26T07:18:20.705Z,2.05
2023-11-26T07:20:47.934Z,2.06
2023-11-26T07:23:14.818Z,2.37
2023-11-26T07:25:41.244Z,2.40
2023-11-26T07:28:12.390Z,2.33
2023-11-26T07:30:39.262Z,2.18
2023-11-26T07:33:05.994Z,2.66
2023-11-26T07:35:32.503Z,2.67
2023-11-26T07:37:58.876Z,2.58
2023-11-26T07:40:25.230Z,2.55
2023-11-26T07:42:51.683Z,2.50
2023-11-26T07:45:18.136Z,2.57
2023-11-26T07:47:44.523Z,2.36
2023-11-26T07:50:10.898Z,2.25
2023-11-26T07:52:37.961Z,2.51
2023-11-26T07:55:06.334Z,2.52
2023-11-26T07:57:33.477Z,2.91
2023-11-26T08:00:01.011Z,3.04
2023-11-26T08:02:30.677Z,3.32
2023-11-26T08:04:58.251Z,3.32
2023-11-26T08:07:25.506Z,3.58
2023-11-26T08:09:52.437Z,3.45
2023-11-26T08:12:24.332Z,3.34
2023-11-26T08:14:53.795Z,3.53
2023-11-26T08:17:20.721Z,3.63
2023-11-26T08:19:47.093Z,3.30
2023-11-26T08:22:13.678Z,3.30
2023-11-26T08:24:43.565Z,3.29
2023-11-26T08:27:11.288Z,3.28
2023-11-26T08:29:37.972Z,3.34
2023-11-26T08:32:08.654Z,3.11
2023-11-26T08:34:42.600Z,3.72
2023-11-26T08:37:16.015Z,3.61
2023-11-26T08:39:47.334Z,3.75
2023-11-26T08:42:15.571Z,3.94
2023-11-26T08:44:46.212Z,3.75
2023-11-26T08:47:13.004Z,3.60
2023-11-26T08:49:39.347Z,3.71
2023-11-26T08:52:05.992Z,3.62
2023-11-26T08:54:32.435Z,3.49
2023-11-26T08:56:58.795Z,3.36
2023-11-26T08:59:25.138Z,3.48
2023-11-26T09:01:51.632Z,3.73
2023-11-26T09:04:18.134Z,3.75
2023-11-26T09:06:44.734Z,3.76
2023-11-26T09:09:11.558Z,3.79
2023-11-26T09:11:37.940Z,4.13
2023-11-26T09:14:04.365Z,4.14
2023-11-26T09:16:37.450Z,3.83
2023-11-26T09:19:04.793Z,3.66
2023-11-26T09:21:31.749Z,3.79
2023-11-26T09:24:01.344Z,3.69
2023-11-26T09:26:28.571Z,3.72
2023-11-26T09:28:57.818Z,3.96
2023-11-26T09:31:24.890Z,4.25
2023-11-26T09:33:51.450Z,4.32
2023-11-26T09:36:17.922Z,4.28
2023-11-26T09:38:45.396Z,4.50
2023-11-26T09:41:18.955Z,4.45
2023-11-26T09:43:45.516Z,4.61
2023-11-26T09:46:12.084Z,4.96
2023-11-26T09:48:38.555Z,5.10
2023-11-26T09:51:06.047Z,5.12
2023-11-26T09:53:32.740Z,4.49
2023-11-26T09:55:59.122Z,4.27
2023-11-26T09:58:25.485Z,4.44
2023-11-26T10:00:51.987Z,4.15
2023-11-26T10:03:18.729Z,4.55
2023-11-26T10:05:45.617Z,4.70
2023-11-26T10:08:29.209Z,4.53
2023-11-26T10:10:56.658Z,4.92
2023-11-26T10:13:23.066Z,4.86
2023-11-26T10:15:49.743Z,5.19
2023-11-26T10:18:18.547Z,5.15
2023-11-26T10:20:51.109Z,5.31
2023-11-26T10:23:25.874Z,5.80
2023-11-26T10:25:52.236Z,5.81
2023-11-26T10:28:18.653Z,5.61
2023-11-26T10:30:45.250Z,5.53
2023-11-26T10:33:13.341Z,5.53
2023-11-26T10:35:48.491Z,5.82
2023-11-26T10:38:15.574Z,5.74
2023-11-26T10:40:43.661Z,5.61
2023-11-26T10:43:10.657Z,5.62
2023-11-26T10:45:38.721Z,5.91
2023-11-26T10:48:18.128Z,6.00
2023-11-26T10:50:52.144Z,6.00
2023-11-26T10:53:23.995Z,6.13
2023-11-26T10:55:53.193Z,6.19
2023-11-26T10:58:20.769Z,6.33
2023-11-26T11:00:50.303Z,6.03
2023-11-26T11:03:18.354Z,6.22
2023-11-26T11:05:48.255Z,6.14
2023-11-26T11:08:16.765Z,6.03
2023-11-26T11:11:10.924Z,6.05
2023-11-26T11:13:37.744Z,6.32
2023-11-26T11:16:04.753Z,6.43
2023-11-26T11:18:34.092Z,6.29
2023-11-26T11:21:11.664Z,6.46
2023-11-26T11:23:41.082Z,6.66
2023-11-26T11:26:09.275Z,6.52
2023-11-26T11:28:41.801Z,6.52
2023-11-26T11:31:10.436Z,6.32
2023-11-26T11:33:37.172Z,6.34
2023-11-26T11:36:06.389Z,6.33
2023-11-26T11:39:03.131Z,6.05
2023-11-26T11:41:31.172Z,6.16
2023-11-26T11:44:27.303Z,6.19
2023-11-26T11:46:53.723Z,6.31
2023-11-26T11:49:20.918Z,5.96
2023-11-26T11:51:47.481Z,5.90
2023-11-26T11:54:39.115Z,6.16
2023-11-26T11:57:16.307Z,6.23
2023-11-26T11:59:44.483Z,6.04
2023-11-26T12:02:11.942Z,6.24
2023-11-26T12:04:43.322Z,6.46
2023-11-26T12:07:11.976Z,6.55
2023-11-26T12:09:39.855Z,6.14
2023-11-26T12:12:07.698Z,6.18
2023-11-26T12:14:34.226Z,6.20
2023-11-26T12:17:07.544Z,6.02
2023-11-26T12:19:38.558Z,6.22
2023-11-26T12:22:05.446Z,6.53
2023-11-26T12:24:32.580Z,6.21
2023-11-26T12:26:59.172Z,6.31
2023-11-26T12:29:33.234Z,6.26
2023-11-26T12:32:09.978Z,6.20
2023-11-26T12:34:40.610Z,5.98
2023-11-26T12:37:08.764Z,6.10
2023-11-26T12:39:36.647Z,6.15
2023-11-26T12:42:03.337Z,6.43
2023-11-26T12:44:31.746Z,6.24
2023-11-26T12:47:10.637Z,6.25
2023-11-26T12:49:38.563Z,6.25
2023-11-26T12:52:05.706Z,6.20
2023-11-26T12:54:32.376Z,6.40
2023-11-26T12:56:58.781Z,6.56
2023-11-26T12:59:25.305Z,6.39
2023-11-26T13:01:52.278Z,6.32
2023-11-26T13:04:28.666Z,6.12
2023-11-26T13:06:56.611Z,6.11
2023-11-26T13:09:23.631Z,5.91
2023-11-26T13:11:50.226Z,5.63
2023-11-26T13:14:21.473Z,5.69
2023-11-26T13:16:50.117Z,6.05
2023-11-26T13:19:16.654Z,5.97
2023-11-26T13:21:48.408Z,5.68
2023-11-26T13:24:15.468Z,6.14
2023-11-26T13:26:42.074Z,6.23
2023-11-26T13:29:08.755Z,6.61
2023-11-26T13:31:35.176Z,6.31
2023-11-26T13:34:01.868Z,6.01
2023-11-26T13:36:28.306Z,6.08
2023-11-26T13:38:54.708Z,6.20
2023-11-26T13:41:21.842Z,6.01
2023-11-26T13:43:48.230Z,6.17
2023-11-26T13:46:14.723Z,5.61
2023-11-26T13:48:42.346Z,5.84
2023-11-26T13:51:12.060Z,5.67
2023-11-26T13:53:39.779Z,5.75
2023-11-26T13:56:06.601Z,5.79
2023-11-26T13:58:33.774Z,5.75
2023-11-26T14:01:00.404Z,5.81
2023-11-26T14:03:26.949Z,5.45
2023-11-26T14:05:54.416Z,5.87
2023-11-26T14:08:25.485Z,6.02
2023-11-26T14:10:51.938Z,5.74
2023-11-26T14:13:19.205Z,5.79
2023-11-26T14:15:46.012Z,6.08
2023-11-26T14:18:13.318Z,5.69
2023-11-26T14:20:40.015Z,6.31
2023-11-26T14:23:08.395Z,6.49
2023-11-26T14:25:35.137Z,6.31
2023-11-26T14:28:02.080Z,6.54
2023-11-26T14:30:28.552Z,6.34
2023-11-26T14:32:55.041Z,6.07
2023-11-26T14:35:21.579Z,6.09
2023-11-26T14:37:47.986Z,5.98
2023-11-26T14:40:14.676Z,6.18
2023-11-26T14:42:43.122Z,6.15
2023-11-26T14:45:10.903Z,6.19
2023-11-26T14:47:37.671Z,6.02
2023-11-26T14:50:05.272Z,6.28
2023-11-26T14:52:35.271Z,6.05
2023-11-26T14:55:02.718Z,5.69
2023-11-26T14:57:29.282Z,5.73
2023-11-26T14:59:56.130Z,5.97
2023-11-26T15:02:22.968Z,5.95
2023-11-26T15:04:50.596Z,5.85
2023-11-26T15:07:17.586Z,6.10
2023-11-26T15:09:46.392Z,6.17
2023-11-26T15:12:13.718Z,6.18
2023-11-26T15:14:40.965Z,6.02
2023-11-26T15:17:07.558Z,5.96
2023-11-26T15:19:34.332Z,5.97
2023-11-26T15:22:07.288Z,5.96
2023-11-26T15:24:36.896Z,5.97
2023-11-26T15:27:03.592Z,5.82
2023-11-26T15:29:30.117Z,5.78
2023-11-26T15:31:56.531Z,5.83
2023-11-26T15:34:24.055Z,5.82
2023-11-26T15:36:50.585Z,5.89
2023-11-26T15:39:21.414Z,5.89
2023-11-26T15:41:47.756Z,5.86
2023-11-26T15:44:14.851Z,5.89
2023-11-26T15:46:41.681Z,5.84
2023-11-26T15:49:08.455Z,5.73
2023-11-26T15:51:34.848Z,5.88
2023-11-26T15:54:03.546Z,6.02
2023-11-26T15:56:31.940Z,5.84
2023-11-26T15:58:58.560Z,5.79
2023-11-26T16:01:25.296Z,5.81
2023-11-26T16:03:51.986Z,5.66
2023-11-26T16:06:18.584Z,5.81
2023-11-26T16:08:47.265Z,5.86
2023-11-26T16:11:13.857Z,6.14
2023-11-26T16:13:40.628Z,6.07
2023-11-26T16:16:08.111Z,6.05
2023-11-26T16:18:37.447Z,6.02
2023-11-26T16:21:04.191Z,6.12
2023-11-26T16:23:30.674Z,5.86
2023-11-26T16:25:57.063Z,5.82
2023-11-26T16:28:23.543Z,6.02
2023-11-26T16:30:49.972Z,5.67
2023-11-26T16:33:41.336Z,6.00
2023-11-26T16:36:08.253Z,5.98
2023-11-26T16:38:34.583Z,5.97
2023-11-26T16:41:00.987Z,5.74
2023-11-26T16:43:27.398Z,5.41
2023-11-26T16:45:56.950Z,5.68
2023-11-26T16:48:23.286Z,6.08
2023-11-26T16:50:49.647Z,6.07
2023-11-26T16:53:16.055Z,5.96
2023-11-26T16:55:42.449Z,6.16
2023-11-26T16:58:08.924Z,6.00
2023-11-26T17:00:35.315Z,6.02
2023-11-26T17:03:01.717Z,6.05
2023-11-26T17:05:28.075Z,5.91
2023-11-26T17:07:54.442Z,6.00
2023-11-26T17:10:20.838Z,6.06
2023-11-26T17:12:50.287Z,6.06
2023-11-26T17:15:18.013Z,6.00
2023-11-26T17:17:44.416Z,5.83
2023-11-26T17:20:11.077Z,6.11
2023-11-26T17:22:37.425Z,6.15
2023-11-26T17:25:04.093Z,5.96
2023-11-26T17:27:30.490Z,5.99
2023-11-26T17:29:57.584Z,5.97
2023-11-26T17:32:24.365Z,5.85
2023-11-26T17:34:50.743Z,5.95
2023-11-26T17:37:18.290Z,5.83
2023-11-26T17:39:44.685Z,6.05
2023-11-26T17:42:11.045Z,6.03
2023-11-26T17:44:37.385Z,6.02
2023-11-26T17:47:08.364Z,5.68
2023-11-26T17:49:36.542Z,5.59
2023-11-26T17:52:03.038Z,5.98
2023-11-26T17:54:29.427Z,5.96
2023-11-26T17:56:57.324Z,6.01
2023-11-26T17:59:23.672Z,5.74
2023-11-26T18:01:51.550Z,5.77
2023-11-26T18:04:18.204Z,5.85
2023-11-26T18:06:44.995Z,5.71
2023-11-26T18:09:11.601Z,5.69
2023-11-26T18:11:37.952Z,5.67
2023-11-26T18:14:06.386Z,5.53
2023-11-26T18:16:32.979Z,5.71
2023-11-26T18:18:59.466Z,5.89
2023-11-26T18:21:27.197Z,5.60
2023-11-26T18:23:53.540Z,5.74
2023-11-26T18:26:19.882Z,5.86
2023-11-26T18:28:46.341Z,5.74
2023-11-26T18:31:12.817Z,5.70
2023-11-26T18:33:39.263Z,5.79
2023-11-26T18:36:06.046Z,5.78
2023-11-26T18:38:32.527Z,5.58
2023-11-26T18:40:58.922Z,5.66
2023-11-26T18:43:25.258Z,5.78
2023-11-26T18:45:54.747Z,5.74
2023-11-26T18:48:21.234Z,5.83
2023-11-26T18:50:47.930Z,5.70
2023-11-26T18:53:14.666Z,5.95
2023-11-26T18:55:41.066Z,5.98
2023-11-26T18:58:07.435Z,6.00
2023-11-26T19:00:33.815Z,6.02
2023-11-26T19:03:02.844Z,6.10
2023-11-26T19:05:29.238Z,6.07
2023-11-26T19:07:55.695Z,5.99
2023-11-26T19:10:23.490Z,6.07
2023-11-26T19:12:50.081Z,5.91
2023-11-26T19:15:16.956Z,5.91
2023-11-26T19:17:43.796Z,5.84
2023-11-26T19:20:10.947Z,6.05
2023-11-26T19:22:37.578Z,5.87
2023-11-26T19:25:04.592Z,5.60
2023-11-26T19:27:32.157Z,5.79
2023-11-26T19:29:58.692Z,5.77
2023-11-26T19:32:25.101Z,5.71
2023-11-26T19:34:51.760Z,5.89
2023-11-26T19:37:21.391Z,6.24
2023-11-26T19:39:47.880Z,6.08
2023-11-26T19:42:14.724Z,6.03
2023-11-26T19:44:41.222Z,5.89
2023-11-26T19:47:08.259Z,5.63
2023-11-26T19:49:34.812Z,5.57
2023-11-26T19:52:02.418Z,5.60
2023-11-26T19:54:29.219Z,5.64
2023-11-26T19:56:55.572Z,5.61
2023-11-26T19:59:21.944Z,5.49
2023-11-26T20:01:48.645Z,6.16
2023-11-26T20:04:15.189Z,6.39
2023-11-26T20:06:44.956Z,6.52
2023-11-26T20:09:11.318Z,6.26
2023-11-26T20:11:37.692Z,6.39
2023-11-26T20:14:04.102Z,6.31
2023-11-26T20:16:30.442Z,6.37
2023-11-26T20:18:56.814Z,6.14
2023-11-26T20:21:23.359Z,6.10
2023-11-26T20:23:51.249Z,6.14
2023-11-26T20:26:21.964Z,5.76
2023-11-26T20:28:48.718Z,5.91
2023-11-26T20:31:15.560Z,5.99
2023-11-26T20:33:44.981Z,6.40
2023-11-26T20:36:19.831Z,5.74
2023-11-26T20:38:49.751Z,6.10
2023-11-26T20:41:16.266Z,6.00
2023-11-26T20:43:42.775Z,5.88
2023-11-26T20:46:09.356Z,6.13
2023-11-26T20:48:35.917Z,6.35
2023-11-26T20:51:02.832Z,6.18
2023-11-26T20:53:29.162Z,5.99
2023-11-26T20:55:55.754Z,5.81
2023-11-26T20:58:22.128Z,5.76
2023-11-26T21:00:50.108Z,5.74
2023-11-26T21:03:16.617Z,5.75
2023-11-26T21:05:42.981Z,5.64
2023-11-26T21:08:09.511Z,5.44
2023-11-26T21:10:35.873Z,5.43
2023-11-26T21:13:02.974Z,5.60
2023-11-26T21:15:32.459Z,5.62
2023-11-26T21:17:59.359Z,5.67
2023-11-26T21:20:26.139Z,5.41
2023-11-26T21:22:53.185Z,5.13
2023-11-26T21:25:19.918Z,5.21
2023-11-26T21:27:46.839Z,5.72
2023-11-26T21:30:13.864Z,5.86
2023-11-26T21:32:40.749Z,5.44
2023-11-26T21:35:07.673Z,5.90
2023-11-26T21:37:34.120Z,6.09
2023-11-26T21:40:00.517Z,5.86
2023-11-26T21:42:26.907Z,5.69
2023-11-26T21:44:53.324Z,5.55
2023-11-26T21:47:19.675Z,5.17
2023-11-26T21:49:46.382Z,4.91
2023-11-26T21:52:15.201Z,5.10
2023-11-26T21:54:41.736Z,5.05
2023-11-26T21:57:08.151Z,5.11
2023-11-26T21:59:36.386Z,4.72
2023-11-26T22:02:03.250Z,4.82
2023-11-26T22:04:29.770Z,4.61
2023-11-26T22:06:56.240Z,4.77
2023-11-26T22:09:22.693Z,5.18
2023-11-26T22:11:49.042Z,5.19
2023-11-26T22:14:16.139Z,4.60
2023-11-26T22:16:43.888Z,5.13
2023-11-26T22:19:11.983Z,4.41
2023-11-26T22:21:38.376Z,5.34
2023-11-26T22:24:07.542Z,4.79
2023-11-26T22:26:39.295Z,5.06
2023-11-26T22:29:05.969Z,5.35
2023-11-26T22:31:33.509Z,5.45
2023-11-26T22:34:02.125Z,5.40
2023-11-26T22:36:30.749Z,4.87
2023-11-26T22:38:58.853Z,4.78
2023-11-26T22:41:27.822Z,4.93
2023-11-26T22:43:55.607Z,4.71
2023-11-26T22:46:27.236Z,5.44
2023-11-26T22:48:55.027Z,5.18
2023-11-26T22:51:21.971Z,4.95
2023-11-26T22:53:48.365Z,4.56
2023-11-26T22:56:15.705Z,5.90
2023-11-26T22:58:43.227Z,5.61
2023-11-26T23:01:09.788Z,5.96
2023-11-26T23:03:36.247Z,5.07
2023-11-26T23:06:10.292Z,5.36
2023-11-26T23:08:36.709Z,6.00
2023-11-26T23:11:03.745Z,5.36
2023-11-26T23:13:31.354Z,5.25
2023-11-26T23:15:58.100Z,4.93
2023-11-26T23:18:25.269Z,5.83
2023-11-26T23:20:51.636Z,5.59
2023-11-26T23:23:27.370Z,5.50
2023-11-26T23:26:03.230Z,6.07
2023-11-26T23:28:29.710Z,5.89
2023-11-26T23:30:56.111Z,6.28
2023-11-26T23:33:22.493Z,5.86
2023-11-26T23:35:48.991Z,5.94
2023-11-26T23:38:15.437Z,5.83
2023-11-26T23:40:47.399Z,5.45
2023-11-26T23:43:17.323Z,5.48
2023-11-26T23:45:43.873Z,5.84
2023-11-26T23:48:10.948Z,6.30
2023-11-26T23:50:37.326Z,6.09
2023-11-26T23:53:03.679Z,5.67
2023-11-26T23:55:30.453Z,5.33
2023-11-26T23:57:59.342Z,5.78
